Time;durP1;ratioP1;P1;durP2;ratioP2;P2;SDS_P1;SDS_P2;PMS_P1;PMS_P2;Temp;Humidity;BMP_temperature;BMP_pressure;BME280_temperature;BME280_humidity;BME280_pressure;Samples;Min_cycle;Max_cycle;Signal;HPM_P1;HPM_P2
2021/09/03 00:00:16;;;;;;;2.33;2.00;;;23.10;48.10;;;;;;4819567;29;20102;-66
2021/09/03 00:02:44;;;;;;;2.13;1.92;;;23.10;48.10;;;;;;4807879;29;20058;-66
2021/09/03 00:05:16;;;;;;;2.20;1.90;;;23.10;48.10;;;;;;4819587;29;20126;-66
2021/09/03 00:07:44;;;;;;;1.65;1.55;;;23.10;48.10;;;;;;4817833;29;20126;-66
2021/09/03 00:10:13;;;;;;;1.70;1.60;;;23.10;48.10;;;;;;4817970;29;20054;-66
2021/09/03 00:12:41;;;;;;;2.05;1.85;;;23.10;48.10;;;;;;4809694;29;20053;-65
2021/09/03 00:15:11;;;;;;;1.73;1.63;;;23.10;48.20;;;;;;4819298;29;20107;-66
2021/09/03 00:17:39;;;;;;;;;;;23.10;48.10;;;;;;4818056;29;20059;-66
2021/09/03 00:20:08;;;;;;;1.63;1.45;;;23.10;48.20;;;;;;4818412;29;19935;-66
2021/09/03 00:22:36;;;;;;;1.97;1.80;;;23.10;48.20;;;;;;4809687;29;20054;-66
2021/09/03 00:25:04;;;;;;;1.70;1.60;;;23.10;48.30;;;;;;4818846;29;20290;-67
2021/09/03 00:27:32;;;;;;;2.28;1.58;;;23.10;48.30;;;;;;4818882;29;20194;-67
2021/09/03 00:29:59;;;;;;;1.70;1.60;;;23.10;48.30;;;;;;4819253;29;20082;-67
2021/09/03 00:32:27;;;;;;;2.00;1.80;;;23.00;48.20;;;;;;4810953;29;20583;-66
2021/09/03 00:34:54;;;;;;;2.30;2.08;;;23.10;48.30;;;;;;4816778;29;20134;-67
2021/09/03 00:37:22;;;;;;;2.00;1.80;;;23.10;48.30;;;;;;4818819;29;20054;-67
2021/09/03 00:39:49;;;;;;;2.00;1.80;;;23.00;48.20;;;;;;4818843;29;20489;-67
2021/09/03 00:42:16;;;;;;;1.70;1.60;;;23.00;48.30;;;;;;4801548;29;20097;-67
2021/09/03 00:44:43;;;;;;;1.63;1.52;;;23.00;48.30;;;;;;4814925;29;20054;-66
2021/09/03 00:47:10;;;;;;;2.00;1.80;;;23.00;48.30;;;;;;4818980;29;20073;-67
2021/09/03 00:49:37;;;;;;;1.67;1.58;;;23.00;48.30;;;;;;4818415;29;20523;-67
2021/09/03 00:52:07;;;;;;;1.55;1.33;;;23.00;48.30;;;;;;4809530;29;20065;-67
2021/09/03 00:54:35;;;;;;;1.85;1.42;;;23.00;48.30;;;;;;4814552;29;20046;-67
2021/09/03 00:57:03;;;;;;;2.28;1.80;;;23.00;48.30;;;;;;4818398;29;20055;-67
2021/09/03 00:59:31;;;;;;;2.03;1.90;;;23.00;48.30;;;;;;4818316;29;20067;-67
2021/09/03 01:01:59;;;;;;;2.28;1.80;;;23.00;48.30;;;;;;4809704;29;20056;-67
2021/09/03 01:04:27;;;;;;;1.65;1.55;;;23.00;48.30;;;;;;4815038;29;20065;-67
2021/09/03 01:06:54;;;;;;;2.22;2.03;;;23.00;48.30;;;;;;4818268;29;20058;-66
2021/09/03 01:09:21;;;;;;;1.60;1.42;;;23.00;48.40;;;;;;4818231;29;20971;-67
2021/09/03 01:11:49;;;;;;;1.77;1.45;;;23.00;48.40;;;;;;4811234;29;20142;-66
2021/09/03 01:14:17;;;;;;;2.08;1.50;;;23.00;48.40;;;;;;4814802;29;20488;-67
2021/09/03 01:16:44;;;;;;;1.83;1.48;;;23.00;48.40;;;;;;4818209;29;20101;-67
2021/09/03 01:19:11;;;;;;;1.63;1.52;;;23.00;48.40;;;;;;4818293;29;20513;-67
2021/09/03 01:21:38;;;;;;;2.33;1.60;;;23.00;48.40;;;;;;4813255;29;20058;-66
2021/09/03 01:24:05;;;;;;;1.70;1.60;;;23.00;48.40;;;;;;4813334;29;20055;-68
2021/09/03 01:26:32;;;;;;;3.58;1.27;;;23.00;48.40;;;;;;4818616;29;20511;-67
2021/09/03 01:29:00;;;;;;;1.65;1.52;;;23.00;48.90;;;;;;4817870;29;20086;-67
2021/09/03 01:31:27;;;;;;;2.45;1.65;;;23.00;48.30;;;;;;4812505;29;20424;-66
2021/09/03 01:33:57;;;;;;;2.03;1.60;;;23.00;48.30;;;;;;4813301;29;20534;-67
2021/09/03 01:36:28;;;;;;;1.95;1.67;;;23.00;48.30;;;;;;4821562;29;20500;-67
2021/09/03 01:38:56;;;;;;;1.70;1.52;;;23.00;48.30;;;;;;4821598;29;20081;-67
2021/09/03 01:41:24;;;;;;;2.42;1.95;;;23.00;48.20;;;;;;4817875;29;20058;-66
2021/09/03 01:43:51;;;;;;;2.05;1.63;;;23.00;48.20;;;;;;4815264;29;20050;-66
2021/09/03 01:46:19;;;;;;;1.73;1.50;;;23.00;48.20;;;;;;4821540;29;20055;-67
2021/09/03 01:48:46;;;;;;;3.25;1.60;;;23.10;48.20;;;;;;4820746;29;20461;-67
2021/09/03 01:51:14;;;;;;;3.45;1.42;;;23.00;48.20;;;;;;4820593;29;20050;-66
2021/09/03 01:53:41;;;;;;;1.85;1.35;;;23.00;48.20;;;;;;4812267;29;20051;-67
2021/09/03 01:56:08;;;;;;;2.25;1.77;;;23.00;48.20;;;;;;4821665;29;20142;-67
2021/09/03 01:58:35;;;;;;;3.17;1.90;;;23.00;48.20;;;;;;4821008;29;20054;-67
2021/09/03 02:01:02;;;;;;;2.45;1.50;;;23.00;48.30;;;;;;4820314;29;20061;-66
2021/09/03 02:03:30;;;;;;;1.50;1.40;;;23.00;48.30;;;;;;4811621;29;20093;-68
2021/09/03 02:05:58;;;;;;;3.17;1.40;;;23.00;48.30;;;;;;4821110;29;20085;-67
2021/09/03 02:08:25;;;;;;;1.98;1.77;;;22.90;48.30;;;;;;4821218;29;20107;-67
2021/09/03 02:10:53;;;;;;;3.38;1.45;;;22.90;48.30;;;;;;4820791;29;20050;-67
2021/09/03 02:13:20;;;;;;;1.38;1.27;;;23.00;48.40;;;;;;4811712;29;20427;-67
2021/09/03 02:15:48;;;;;;;1.83;1.73;;;22.90;48.30;;;;;;4820912;29;20055;-67
2021/09/03 02:18:15;;;;;;;1.10;1.10;;;22.90;48.30;;;;;;4820614;29;20416;-67
2021/09/03 02:20:43;;;;;;;2.03;1.20;;;23.00;48.30;;;;;;4821198;29;20054;-67
2021/09/03 02:23:10;;;;;;;2.00;1.80;;;23.00;48.40;;;;;;4809333;29;20057;-67
2021/09/03 02:25:37;;;;;;;1.50;1.40;;;22.90;48.30;;;;;;4820458;29;20053;-67
2021/09/03 02:28:04;;;;;;;1.90;1.17;;;22.90;48.30;;;;;;4820831;29;20057;-67
2021/09/03 02:30:32;;;;;;;1.75;1.48;;;22.90;48.30;;;;;;4820339;29;20050;-67
2021/09/03 02:33:00;;;;;;;1.50;1.40;;;22.90;48.30;;;;;;4809229;29;20061;-66
2021/09/03 02:35:27;;;;;;;1.85;1.50;;;22.90;48.40;;;;;;4820381;29;20089;-67
2021/09/03 02:37:56;;;;;;;2.38;1.67;;;22.90;48.40;;;;;;4819668;29;20080;-67
2021/09/03 02:40:27;;;;;;;3.63;1.20;;;22.90;48.40;;;;;;4820493;29;20081;-67
2021/09/03 02:42:55;;;;;;;1.35;1.25;;;22.90;48.40;;;;;;4809195;29;20149;-67
2021/09/03 02:45:22;;;;;;;1.60;1.50;;;22.90;48.40;;;;;;4820358;29;20054;-67
2021/09/03 02:47:49;;;;;;;2.85;1.10;;;22.90;48.40;;;;;;4834149;29;20058;-66
2021/09/03 02:50:17;;;;;;;1.50;1.40;;;22.90;48.40;;;;;;4820494;29;20050;-67
2021/09/03 02:52:45;;;;;;;1.92;1.63;;;22.90;48.40;;;;;;4807499;29;20496;-67
2021/09/03 02:55:12;;;;;;;1.50;1.40;;;22.90;48.40;;;;;;4820244;29;20046;-67
2021/09/03 02:57:39;;;;;;;1.80;1.70;;;22.90;48.40;;;;;;4820014;29;20065;-67
2021/09/03 03:00:08;;;;;;;1.85;1.65;;;22.90;48.40;;;;;;4820132;29;20043;-66
2021/09/03 03:02:36;;;;;;;1.42;1.33;;;22.90;48.40;;;;;;4808918;29;20058;-66
2021/09/03 03:05:03;;;;;;;1.38;1.27;;;22.90;48.40;;;;;;4820456;29;20107;-67
2021/09/03 03:07:31;;;;;;;1.42;1.30;;;22.90;48.40;;;;;;4820463;29;20137;-67
2021/09/03 03:09:58;;;;;;;1.58;1.45;;;22.90;48.40;;;;;;4819184;29;20042;-67
2021/09/03 03:12:26;;;;;;;1.60;1.13;;;22.90;48.40;;;;;;4809827;29;20050;-67
2021/09/03 03:14:53;;;;;;;3.33;1.55;;;22.90;48.40;;;;;;4820173;29;20646;-66
2021/09/03 03:17:20;;;;;;;1.45;1.35;;;22.90;48.30;;;;;;4803748;29;20074;-67
2021/09/03 03:19:47;;;;;;;1.83;1.42;;;22.90;48.30;;;;;;4820256;29;20062;-67
2021/09/03 03:22:14;;;;;;;1.52;1.42;;;22.90;48.30;;;;;;4812150;29;20732;-66
2021/09/03 03:24:41;;;;;;;2.08;1.15;;;22.90;48.20;;;;;;4816823;29;20457;-67
2021/09/03 03:27:09;;;;;;;1.20;1.10;;;22.90;48.20;;;;;;4820174;29;20496;-67
2021/09/03 03:29:36;;;;;;;2.15;1.45;;;22.90;48.10;;;;;;4819752;29;20055;-66
2021/09/03 03:32:04;;;;;;;1.63;1.52;;;22.90;48.10;;;;;;4814211;29;20138;-66
2021/09/03 03:34:32;;;;;;;1.30;1.20;;;22.90;48.10;;;;;;4815872;29;20054;-67
2021/09/03 03:37:00;;;;;;;1.40;1.10;;;22.90;48.10;;;;;;4819502;29;20093;-67
2021/09/03 03:39:27;;;;;;;1.50;1.40;;;22.90;48.10;;;;;;4819710;29;20054;-68
2021/09/03 03:41:54;;;;;;;1.42;1.27;;;22.90;48.10;;;;;;4809707;29;20082;-66
2021/09/03 03:44:21;;;;;;;1.40;1.27;;;22.90;48.10;;;;;;4816776;29;20250;-66
2021/09/03 03:46:49;;;;;;;2.55;1.42;;;22.90;48.20;;;;;;4819724;29;20138;-67
2021/09/03 03:49:16;;;;;;;1.67;1.50;;;22.90;48.20;;;;;;4819509;29;20145;-67
2021/09/03 03:51:47;;;;;;;1.45;1.35;;;22.90;48.20;;;;;;4814849;29;20050;-66
2021/09/03 03:54:14;;;;;;;1.23;1.00;;;22.90;48.30;;;;;;4815383;29;20107;-67
2021/09/03 03:56:41;;;;;;;1.10;1.00;;;22.80;48.20;;;;;;4818324;29;20587;-67
2021/09/03 03:59:08;;;;;;;1.27;1.20;;;22.80;48.20;;;;;;4819664;29;20137;-67
2021/09/03 04:01:35;;;;;;;1.50;1.40;;;22.80;48.20;;;;;;4813202;29;20419;-67
2021/09/03 04:04:03;;;;;;;1.30;1.20;;;22.90;48.30;;;;;;4813734;29;20428;-67
2021/09/03 04:06:30;;;;;;;2.28;1.27;;;22.80;48.20;;;;;;4819266;29;20546;-67
2021/09/03 04:08:57;;;;;;;1.45;1.35;;;22.80;48.20;;;;;;4819585;29;20050;-67
2021/09/03 04:11:25;;;;;;;1.17;1.08;;;22.80;48.20;;;;;;4814035;29;20093;-66
2021/09/03 04:13:52;;;;;;;1.58;1.17;;;22.90;48.20;;;;;;4813300;29;20135;-66
2021/09/03 04:16:19;;;;;;;1.42;1.33;;;22.90;48.20;;;;;;4819136;29;20089;-67
2021/09/03 04:18:46;;;;;;;0.88;0.88;;;22.80;48.20;;;;;;4819044;29;20065;-67
2021/09/03 04:21:13;;;;;;;2.55;1.38;;;22.90;48.20;;;;;;4812968;29;20047;-65
2021/09/03 04:23:40;;;;;;;1.40;1.23;;;22.80;48.20;;;;;;4812438;29;20054;-67
2021/09/03 04:26:08;;;;;;;1.88;1.52;;;22.80;48.20;;;;;;4818610;29;20583;-66
2021/09/03 04:28:35;;;;;;;1.58;1.20;;;22.90;48.20;;;;;;4818881;29;20054;-66
2021/09/03 04:31:02;;;;;;;3.05;1.42;;;22.80;48.20;;;;;;4817259;29;20050;-65
2021/09/03 04:33:29;;;;;;;2.03;1.67;;;22.80;48.20;;;;;;4809350;29;20169;-66
2021/09/03 04:35:56;;;;;;;1.23;1.05;;;22.90;48.20;;;;;;4818461;29;20134;-66
2021/09/03 04:38:23;;;;;;;1.38;1.17;;;22.90;48.10;;;;;;4818701;29;20193;-66
2021/09/03 04:40:50;;;;;;;1.27;0.98;;;22.90;48.10;;;;;;4818644;29;20051;-68
2021/09/03 04:43:17;;;;;;;1.65;1.55;;;22.90;48.10;;;;;;4812595;29;20518;-68
2021/09/03 04:45:44;;;;;;;1.38;1.27;;;22.90;48.00;;;;;;4823805;29;20046;-66
2021/09/03 04:48:13;;;;;;;1.08;1.00;;;22.90;48.00;;;;;;4827683;29;20310;-66
2021/09/03 04:50:41;;;;;;;1.42;1.15;;;22.90;48.00;;;;;;4833052;29;20480;-67
2021/09/03 04:53:08;;;;;;;1.30;1.20;;;22.90;48.00;;;;;;4810020;29;20111;-68
2021/09/03 04:55:36;;;;;;;1.88;1.30;;;22.90;47.90;;;;;;4821462;29;20058;-68
2021/09/03 04:58:03;;;;;;;1.33;1.23;;;23.00;47.90;;;;;;4827445;29;20482;-68
2021/09/03 05:00:30;;;;;;;1.25;1.15;;;22.90;47.70;;;;;;4824822;29;20046;-68
2021/09/03 05:02:57;;;;;;;1.63;1.25;;;22.90;47.70;;;;;;4808245;29;20085;-68
2021/09/03 05:05:24;;;;;;;1.30;1.20;;;23.00;47.70;;;;;;4817808;29;20405;-67
2021/09/03 05:07:51;;;;;;;4.47;1.30;;;23.00;47.60;;;;;;4823304;29;20045;-68
2021/09/03 05:10:19;;;;;;;3.10;1.42;;;23.00;47.50;;;;;;4819971;29;20531;-66
2021/09/03 05:12:46;;;;;;;1.55;1.45;;;23.00;47.30;;;;;;4808221;29;20432;-66
2021/09/03 05:15:16;;;;;;;1.30;1.20;;;23.00;47.30;;;;;;4821221;29;20056;-67
2021/09/03 05:17:49;;;;;;;1.25;1.23;;;23.00;47.30;;;;;;4820695;29;20103;-68
2021/09/03 05:20:17;;;;;;;2.50;1.70;;;22.90;47.00;;;;;;4824751;29;20424;-69
2021/09/03 05:22:45;;;;;;;1.33;1.23;;;22.90;46.90;;;;;;4801197;29;20081;-69
2021/09/03 05:25:14;;;;;;;1.50;1.40;;;22.80;47.10;;;;;;4824351;29;20438;-70
2021/09/03 05:27:42;;;;;;;1.20;1.10;;;22.70;47.40;;;;;;4824034;29;20058;-69
2021/09/03 05:30:10;;;;;;;1.55;1.45;;;22.60;47.60;;;;;;4827072;29;20046;-68
2021/09/03 05:32:37;;;;;;;2.33;1.60;;;22.50;47.80;;;;;;4816214;29;20185;-68
2021/09/03 05:35:06;;;;;;;1.77;1.50;;;22.40;48.10;;;;;;4818072;29;20046;-68
2021/09/03 05:37:35;;;;;;;1.67;1.40;;;22.20;48.20;;;;;;4817529;29;20063;-67
2021/09/03 05:40:04;;;;;;;2.03;1.48;;;22.10;48.50;;;;;;4813779;29;20058;-68
2021/09/03 05:42:32;;;;;;;1.63;1.50;;;22.00;48.90;;;;;;4808966;29;20062;-68
2021/09/03 05:44:59;;;;;;;8.25;2.00;;;21.90;49.00;;;;;;4816639;29;20082;-68
2021/09/03 05:47:26;;;;;;;4.43;1.73;;;21.70;49.20;;;;;;4815255;29;20488;-69
2021/09/03 05:49:54;;;;;;;2.47;1.63;;;21.60;49.30;;;;;;4815795;29;20082;-68
2021/09/03 05:52:22;;;;;;;3.20;1.65;;;21.60;49.50;;;;;;4808200;29;20060;-68
2021/09/03 05:54:49;;;;;;;1.90;1.80;;;21.50;49.60;;;;;;4813248;29;20062;-68
2021/09/03 05:57:16;;;;;;;3.00;2.05;;;21.40;49.90;;;;;;4820083;29;20523;-70
2021/09/03 05:59:43;;;;;;;2.28;2.08;;;21.30;50.50;;;;;;4824891;29;20133;-69
2021/09/03 06:02:10;;;;;;;3.22;1.60;;;21.20;50.70;;;;;;4809168;29;20058;-69
2021/09/03 06:04:37;;;;;;;5.05;2.42;;;21.10;50.70;;;;;;4812689;29;20065;-69
2021/09/03 06:07:05;;;;;;;4.38;2.72;;;21.00;50.70;;;;;;4814621;29;20050;-67
2021/09/03 06:09:32;;;;;;;3.22;2.10;;;20.90;50.80;;;;;;4814694;29;20074;-67
2021/09/03 06:11:59;;;;;;;4.10;2.13;;;20.90;51.30;;;;;;4783931;29;20477;-71
2021/09/03 06:14:26;;;;;;;2.70;2.47;;;20.90;51.50;;;;;;4768524;29;20088;-69
2021/09/03 06:16:54;;;;;;;4.50;2.65;;;20.80;51.70;;;;;;4781588;29;20055;-69
2021/09/03 06:19:21;;;;;;;7.20;2.97;;;20.70;51.80;;;;;;4785495;29;20483;-68
2021/09/03 06:21:49;;;;;;;5.47;3.30;;;20.70;52.00;;;;;;4775057;29;20587;-68
2021/09/03 06:24:30;;;;;;;4.10;2.80;;;20.70;52.10;;;;;;4768175;29;20146;-67
2021/09/03 06:26:59;;;;;;;6.78;3.20;;;20.70;52.30;;;;;;4778671;29;20496;-67
2021/09/03 06:29:43;;;;;;;12.30;3.78;;;20.60;52.40;;;;;;4783969;29;20115;-67
2021/09/03 06:32:22;;;;;;;7.05;3.85;;;20.60;52.50;;;;;;4772185;29;20099;-65
2021/09/03 06:34:55;;;;;;;8.15;3.67;;;20.50;52.60;;;;;;4776873;29;20065;-65
2021/09/03 06:37:23;;;;;;;4.63;3.28;;;20.50;52.80;;;;;;4796117;29;20584;-67
2021/09/03 06:39:51;;;;;;;6.50;3.28;;;20.50;53.00;;;;;;4783099;29;20086;-66
2021/09/03 06:42:19;;;;;;;4.40;3.08;;;20.50;53.20;;;;;;4769658;29;20055;-67
2021/09/03 06:44:46;;;;;;;7.55;3.30;;;20.50;53.40;;;;;;4774247;29;20081;-66
2021/09/03 06:47:16;;;;;;;6.68;3.03;;;20.40;53.50;;;;;;4783799;29;20425;-68
2021/09/03 06:49:44;;;;;;;6.68;2.85;;;20.40;53.50;;;;;;4784972;29;20064;-71
2021/09/03 06:52:12;;;;;;;4.32;2.85;;;20.40;53.60;;;;;;4775640;29;20151;-66
2021/09/03 06:54:39;;;;;;;7.80;3.38;;;20.40;53.70;;;;;;4778876;29;20058;-67
2021/09/03 06:57:07;;;;;;;8.10;3.35;;;20.40;53.80;;;;;;4780432;29;20100;-67
2021/09/03 06:59:34;;;;;;;4.95;3.17;;;20.40;53.70;;;;;;4783797;29;20466;-67
2021/09/03 07:02:02;;;;;;;5.05;3.05;;;20.40;53.90;;;;;;4773133;29;20567;-68
2021/09/03 07:04:29;;;;;;;4.10;2.67;;;20.40;54.00;;;;;;4775226;29;20078;-68
2021/09/03 07:06:56;;;;;;;4.40;2.83;;;20.40;54.00;;;;;;4779965;29;20059;-68
2021/09/03 07:09:32;;;;;;;4.07;3.00;;;20.40;54.20;;;;;;4784757;29;20087;-67
2021/09/03 07:12:00;;;;;;;6.03;2.88;;;20.40;54.20;;;;;;4773861;29;20090;-71
2021/09/03 07:14:27;;;;;;;5.05;3.45;;;20.40;54.30;;;;;;4771354;29;20106;-66
2021/09/03 07:16:54;;;;;;;6.95;3.25;;;20.40;54.40;;;;;;4779206;29;20175;-66
2021/09/03 07:19:21;;;;;;;4.60;3.22;;;20.40;54.40;;;;;;4779849;29;20100;-70
2021/09/03 07:21:49;;;;;;;6.68;3.50;;;20.40;54.50;;;;;;4775727;29;20520;-70
2021/09/03 07:24:17;;;;;;;4.72;3.00;;;20.40;54.60;;;;;;4772793;29;20050;-70
2021/09/03 07:26:44;;;;;;;4.55;3.45;;;20.40;54.60;;;;;;4781745;29;20426;-70
2021/09/03 07:29:11;;;;;;;5.68;2.97;;;20.40;54.70;;;;;;4775177;29;20043;-70
2021/09/03 07:31:40;;;;;;;4.05;2.40;;;20.40;54.80;;;;;;4788697;29;20554;-66
2021/09/03 07:34:07;;;;;;;2.85;2.33;;;20.40;55.00;;;;;;4773956;29;20124;-69
2021/09/03 07:36:34;;;;;;;4.57;2.88;;;20.40;55.00;;;;;;4781874;29;20412;-66
2021/09/03 07:39:02;;;;;;;7.55;3.10;;;20.50;55.20;;;;;;4780607;29;20108;-65
2021/09/03 07:41:30;;;;;;;7.55;4.07;;;20.50;55.30;;;;;;4774748;29;20055;-68
2021/09/03 07:43:58;;;;;;;3.58;2.83;;;20.50;55.30;;;;;;4772277;29;20498;-66
2021/09/03 07:46:25;;;;;;;4.10;2.88;;;20.50;55.30;;;;;;4781392;29;20051;-66
2021/09/03 07:48:52;;;;;;;4.60;2.78;;;20.50;55.30;;;;;;4778845;29;20188;-66
2021/09/03 07:51:20;;;;;;;5.40;2.53;;;20.50;55.30;;;;;;4774921;29;20086;-68
2021/09/03 07:53:47;;;;;;;3.47;2.60;;;20.50;55.40;;;;;;4771071;29;20065;-66
2021/09/03 07:56:14;;;;;;;4.72;2.55;;;20.60;55.50;;;;;;4780371;29;20053;-69
2021/09/03 07:58:41;;;;;;;4.22;3.00;;;20.60;55.40;;;;;;4783430;29;20055;-68
2021/09/03 08:01:08;;;;;;;4.45;2.60;;;20.60;55.50;;;;;;4785021;29;20138;-72
2021/09/03 08:03:36;;;;;;;2.65;2.35;;;20.60;55.40;;;;;;4767607;29;20059;-69
2021/09/03 08:06:03;;;;;;;3.17;2.35;;;20.60;55.40;;;;;;4777757;29;20502;-68
2021/09/03 08:08:31;;;;;;;6.15;3.10;;;20.60;55.50;;;;;;4780553;29;20158;-69
2021/09/03 08:10:58;;;;;;;6.57;3.55;;;20.60;55.40;;;;;;4781490;29;20057;-69
2021/09/03 08:13:25;;;;;;;3.78;2.55;;;20.70;55.30;;;;;;4763522;29;20059;-68
2021/09/03 08:15:52;;;;;;;3.15;2.50;;;20.70;55.20;;;;;;4777902;29;20493;-69
2021/09/03 08:18:20;;;;;;;4.68;2.65;;;20.70;55.10;;;;;;4778296;29;20070;-69
2021/09/03 08:20:47;;;;;;;3.38;2.50;;;20.70;54.90;;;;;;4779131;29;20090;-69
2021/09/03 08:23:14;;;;;;;2.90;2.17;;;20.70;54.90;;;;;;4766362;29;20051;-69
2021/09/03 08:25:41;;;;;;;5.40;2.83;;;20.70;55.00;;;;;;4785675;29;20058;-69
2021/09/03 08:28:09;;;;;;;2.70;2.40;;;20.70;55.00;;;;;;4784410;29;20054;-69
2021/09/03 08:30:37;;;;;;;3.20;2.20;;;20.70;55.00;;;;;;4780553;29;20062;-67
2021/09/03 08:33:04;;;;;;;2.60;2.00;;;20.80;55.10;;;;;;4763717;29;20433;-72
2021/09/03 08:35:31;;;;;;;3.50;2.17;;;20.80;55.00;;;;;;4780004;29;20266;-69
2021/09/03 08:37:58;;;;;;;3.38;2.42;;;20.80;54.90;;;;;;4781052;29;20051;-69
2021/09/03 08:40:26;;;;;;;2.88;2.15;;;20.80;54.70;;;;;;4782086;29;20094;-69
2021/09/03 08:42:53;;;;;;;2.28;1.90;;;20.80;54.60;;;;;;4765979;29;20487;-68
2021/09/03 08:45:20;;;;;;;2.72;2.20;;;20.80;54.40;;;;;;4776267;29;20138;-69
2021/09/03 08:47:47;;;;;;;2.70;2.33;;;20.90;54.30;;;;;;4782087;29;20083;-68
2021/09/03 08:50:17;;;;;;;5.28;2.15;;;20.90;54.10;;;;;;4781566;29;20146;-69
2021/09/03 08:52:46;;;;;;;2.90;2.42;;;20.80;53.90;;;;;;4763692;29;20053;-68
2021/09/03 08:55:15;;;;;;;2.30;1.95;;;20.90;53.80;;;;;;4771285;29;20093;-71
2021/09/03 08:57:43;;;;;;;2.30;2.10;;;20.80;53.70;;;;;;4780335;29;20429;-69
2021/09/03 09:00:30;;;;;;;4.60;2.40;;;20.80;53.70;;;;;;4780520;29;20065;-69
2021/09/03 09:03:10;;;;;;;4.03;2.38;;;20.80;53.40;;;;;;4763198;29;20584;-68
2021/09/03 09:05:53;;;;;;;3.80;2.80;;;20.90;53.50;;;;;;4780536;29;20164;-67
2021/09/03 09:08:22;;;;;;;2.88;1.77;;;20.90;53.60;;;;;;4779669;29;20169;-71
2021/09/03 09:10:58;;;;;;;5.28;2.47;;;20.90;53.40;;;;;;4777662;29;20058;-70
2021/09/03 09:13:32;;;;;;;3.63;2.17;;;20.90;53.40;;;;;;4763185;29;20051;-70
2021/09/03 09:16:17;;;;;;;2.88;1.85;;;20.90;53.40;;;;;;4777718;29;20070;-67
2021/09/03 09:18:51;;;;;;;2.35;1.70;;;20.90;53.30;;;;;;4777079;29;20113;-67
2021/09/03 09:21:35;;;;;;;3.90;2.35;;;20.90;53.40;;;;;;4775671;29;20134;-66
2021/09/03 09:24:09;;;;;;;3.13;2.20;;;20.90;53.40;;;;;;4766263;29;20150;-69
2021/09/03 09:26:48;;;;;;;3.17;2.28;;;20.90;53.30;;;;;;4778543;29;20056;-66
2021/09/03 09:29:26;;;;;;;1.60;1.50;;;20.90;53.10;;;;;;4778290;29;20073;-70
2021/09/03 09:32:02;;;;;;;3.10;2.08;;;20.90;52.80;;;;;;4774440;29;20116;-69
2021/09/03 09:34:35;;;;;;;2.65;2.10;;;20.90;52.80;;;;;;4774453;29;20111;-71
2021/09/03 09:37:05;;;;;;;2.70;1.88;;;21.00;52.80;;;;;;4781966;29;20059;-69
2021/09/03 09:39:56;;;;;;;2.42;2.22;;;21.00;52.80;;;;;;4778903;29;20059;-70
2021/09/03 09:42:35;;;;;;;2.22;2.00;;;21.00;52.80;;;;;;4769117;29;20450;-69
2021/09/03 09:45:11;;;;;;;3.60;1.83;;;21.00;52.80;;;;;;4774398;29;20824;-73
2021/09/03 09:47:40;;;;;;;2.33;2.00;;;21.00;52.80;;;;;;4777554;29;20542;-67
2021/09/03 09:50:29;;;;;;;4.53;2.30;;;21.00;52.80;;;;;;4777272;29;20059;-69
2021/09/03 09:53:09;;;;;;;3.03;2.20;;;21.10;53.00;;;;;;4768056;29;20058;-68
2021/09/03 09:55:40;;;;;;;2.47;2.13;;;21.10;53.00;;;;;;4787086;29;20067;-68
2021/09/03 09:58:08;;;;;;;2.30;2.03;;;21.10;52.90;;;;;;4781984;29;20073;-68
2021/09/03 10:00:36;;;;;;;2.25;2.05;;;21.10;52.60;;;;;;4789252;29;21145;-68
2021/09/03 10:03:05;;;;;;;4.03;2.38;;;21.10;52.60;;;;;;4767825;29;20058;-68
2021/09/03 10:05:34;;;;;;;3.25;2.10;;;21.10;52.50;;;;;;4780228;29;20173;-66
2021/09/03 10:08:03;;;;;;;2.25;1.95;;;21.20;52.50;;;;;;4783541;29;20146;-70
2021/09/03 10:10:30;;;;;;;1.98;1.77;;;21.20;52.50;;;;;;4782153;29;20494;-68
2021/09/03 10:12:57;;;;;;;2.10;1.50;;;21.20;52.40;;;;;;4771959;29;20051;-67
2021/09/03 10:15:25;;;;;;;3.42;1.85;;;21.20;52.50;;;;;;4785285;29;20560;-68
2021/09/03 10:17:53;;;;;;;2.13;1.92;;;21.20;52.70;;;;;;4788866;29;20094;-68
2021/09/03 10:20:20;;;;;;;1.92;1.73;;;21.20;52.70;;;;;;4780067;29;20744;-69
2021/09/03 10:22:49;;;;;;;2.55;1.85;;;21.20;52.70;;;;;;4774554;29;20055;-69
2021/09/03 10:25:16;;;;;;;5.50;2.05;;;21.20;52.60;;;;;;4786007;29;20179;-70
2021/09/03 10:28:04;;;;;;;2.00;1.85;;;21.20;52.30;;;;;;4786778;29;20138;-70
2021/09/03 10:30:32;;;;;;;2.95;2.05;;;21.20;52.20;;;;;;4785948;29;20134;-70
2021/09/03 10:33:15;;;;;;;2.50;1.80;;;21.20;52.20;;;;;;4777858;29;20151;-70
2021/09/03 10:35:42;;;;;;;3.53;2.00;;;21.20;52.10;;;;;;4788914;29;20296;-70
2021/09/03 10:38:30;;;;;;;3.22;1.90;;;21.20;52.00;;;;;;4783356;29;20146;-70
2021/09/03 10:40:59;;;;;;;2.28;2.08;;;21.20;51.90;;;;;;4783800;29;20149;-70
2021/09/03 10:43:45;;;;;;;5.50;1.92;;;21.20;51.30;;;;;;4771087;29;20417;-69
2021/09/03 10:46:15;;;;;;;2.75;1.75;;;21.20;50.90;;;;;;4783657;29;21684;-69
2021/09/03 10:48:50;;;;;;;2.45;1.90;;;21.20;51.00;;;;;;4783037;29;20051;-70
2021/09/03 10:51:35;;;;;;;1.90;1.77;;;21.30;51.10;;;;;;4778872;29;20577;-69
2021/09/03 10:54:19;;;;;;;2.05;1.55;;;21.30;50.80;;;;;;4772661;29;20059;-69
2021/09/03 10:56:57;;;;;;;2.20;1.80;;;21.30;50.80;;;;;;4782914;29;20082;-69
2021/09/03 10:59:25;;;;;;;3.78;1.75;;;21.20;50.90;;;;;;4777762;29;20482;-69
2021/09/03 11:01:56;;;;;;;2.13;1.83;;;21.30;51.60;;;;;;4775360;29;20108;-68
2021/09/03 11:04:24;;;;;;;1.67;1.40;;;21.30;51.10;;;;;;4768118;29;20054;-69
2021/09/03 11:07:12;;;;;;;2.63;1.92;;;21.30;51.10;;;;;;4780608;29;20318;-67
2021/09/03 11:09:43;;;;;;;2.42;2.22;;;21.30;51.10;;;;;;4787010;29;20142;-69
2021/09/03 11:12:12;;;;;;;6.03;1.77;;;21.30;51.20;;;;;;4777826;29;20146;-67
2021/09/03 11:14:40;;;;;;;2.10;1.88;;;21.30;51.40;;;;;;4772492;29;20141;-66
2021/09/03 11:17:14;;;;;;;2.30;1.63;;;21.30;51.30;;;;;;4784384;29;20133;-65
2021/09/03 11:19:47;;;;;;;1.63;1.52;;;21.30;51.30;;;;;;4776743;29;20529;-68
2021/09/03 11:22:19;;;;;;;3.22;1.70;;;21.30;51.30;;;;;;4778321;29;20771;-66
2021/09/03 11:24:49;;;;;;;1.75;1.45;;;21.30;51.20;;;;;;4772636;29;20432;-68
2021/09/03 11:27:19;;;;;;;1.92;1.73;;;21.30;51.10;;;;;;4779075;29;20143;-68
2021/09/03 11:29:50;;;;;;;1.70;1.33;;;21.30;50.90;;;;;;4784340;29;20054;-71
2021/09/03 11:32:21;;;;;;;1.63;1.52;;;21.30;50.80;;;;;;4767306;29;20142;-66
2021/09/03 11:34:54;;;;;;;2.40;1.88;;;21.40;50.80;;;;;;4777519;29;20055;-68
2021/09/03 11:37:42;;;;;;;1.65;1.48;;;21.40;50.70;;;;;;4782438;29;20055;-70
2021/09/03 11:40:27;;;;;;;1.63;1.52;;;21.40;50.70;;;;;;4778967;29;20517;-67
2021/09/03 11:43:02;;;;;;;1.60;1.50;;;21.40;50.70;;;;;;4765508;29;20055;-68
2021/09/03 11:45:31;;;;;;;1.92;1.83;;;21.40;50.60;;;;;;4775940;29;20147;-70
2021/09/03 11:48:03;;;;;;;2.13;1.90;;;21.40;50.50;;;;;;4786463;29;20058;-70
2021/09/03 11:50:35;;;;;;;1.65;1.55;;;21.40;50.80;;;;;;4779155;29;20058;-70
2021/09/03 11:53:10;;;;;;;2.08;1.58;;;21.40;51.40;;;;;;4770078;29;20047;-68
2021/09/03 11:55:40;;;;;;;2.78;1.40;;;21.40;52.00;;;;;;4781552;29;20051;-67
2021/09/03 11:58:12;;;;;;;1.48;1.38;;;21.50;51.70;;;;;;4774369;29;20146;-70
2021/09/03 12:00:45;;;;;;;3.15;1.83;;;21.50;51.90;;;;;;4782891;29;20047;-71
2021/09/03 12:03:18;;;;;;;3.53;1.40;;;21.50;52.30;;;;;;4767544;29;20057;-71
2021/09/03 12:05:54;;;;;;;2.60;1.85;;;21.60;52.50;;;;;;4778808;29;20069;-67
2021/09/03 12:08:27;;;;;;;3.97;1.67;;;21.50;52.10;;;;;;4781111;29;20135;-70
2021/09/03 12:11:01;;;;;;;6.47;1.55;;;21.50;51.50;;;;;;4780459;29;20057;-70
2021/09/03 12:13:38;;;;;;;2.15;1.58;;;21.50;51.10;;;;;;4775012;29;20138;-68
2021/09/03 12:16:16;;;;;;;2.35;1.98;;;21.50;50.80;;;;;;4790076;29;20386;-68
2021/09/03 12:18:45;;;;;;;1.80;1.63;;;21.50;50.60;;;;;;4780850;29;20130;-74
2021/09/03 12:21:32;;;;;;;2.60;1.50;;;21.50;50.30;;;;;;4782382;29;21764;-68
2021/09/03 12:24:06;;;;;;;3.40;1.77;;;21.60;50.20;;;;;;4778358;29;20050;-69
2021/09/03 12:26:49;;;;;;;5.00;2.10;;;21.50;50.10;;;;;;4788508;29;20142;-69
2021/09/03 12:29:22;;;;;;;2.72;1.00;;;21.50;50.00;;;;;;4789525;29;20115;-69
2021/09/03 12:31:52;;;;;;;4.15;1.45;;;21.50;50.00;;;;;;4776023;29;20421;-69
2021/09/03 12:34:23;;;;;;;2.03;1.58;;;21.50;50.10;;;;;;4775012;29;20062;-69
2021/09/03 12:36:55;;;;;;;;;;;21.50;50.00;;;;;;4781420;29;20427;-69
2021/09/03 12:39:22;;;;;;;1.88;1.65;;;21.60;50.10;;;;;;4791202;29;20019;-69
2021/09/03 12:41:49;;;;;;;2.83;1.67;;;21.60;50.10;;;;;;4783922;29;20086;-68
2021/09/03 12:44:28;;;;;;;6.13;1.55;;;21.60;50.10;;;;;;4782696;29;20051;-69
2021/09/03 12:46:58;;;;;;;2.28;1.98;;;21.60;50.10;;;;;;4783818;29;20146;-70
2021/09/03 12:49:27;;;;;;;1.15;1.13;;;21.60;50.10;;;;;;4784177;29;20050;-69
2021/09/03 12:52:06;;;;;;;2.92;2.10;;;21.60;50.00;;;;;;4768806;29;20136;-69
2021/09/03 12:54:34;;;;;;;2.85;1.45;;;21.60;49.80;;;;;;4777850;29;20055;-69
2021/09/03 12:57:01;;;;;;;3.55;1.63;;;21.60;49.80;;;;;;4788886;29;20461;-70
2021/09/03 12:59:28;;;;;;;1.63;1.52;;;21.60;50.30;;;;;;4778682;29;20067;-70